Weather  for  Auckland Airport  -  New Zealand    New Zealand

22 °C (72 °F)

Current METAR for Auckland Airport is :

NZAA 210230Z AUTO 23007KT 9999 SCT048/// BKN060/// BKN095/// 22/16 Q1021 NOSIG


This is a report for Auckland Airport - New Zealand.
The report was made 31 minutes ago, at 02:30 UTC .
The wind was blowing at a speed of 3.6 meters per second (8.1 miles per hour) from southwest (230°).
The temperature was 22 °C (72 °F), with a dew-point at 16 °C (61 °F).
The temperature felt like 24 °C (75 °F).
The atmospheric pressure was 1021 hPa (30.15 inHg).
The relative humidity was 68.8%.
The overall visibility was greater than 10 kilometers (6.2 miles).


Country :   A   B   C   D   E   F   G   H   I   J   K   L   M   N   O   P   Q   R   S   T   U   V   W   Y   Z


Site Info  |  Disclaimer  |  Credits  |  Privacy
Contact us  |  Add to favorites
© 2013-2018 METARs - All rights reserved